Time;durP1;ratioP1;P1;durP2;ratioP2;P2;SDS_P1;SDS_P2;PMS_P1;PMS_P2;Temp;Humidity;BMP_temperature;BMP_pressure;BME280_temperature;BME280_humidity;BME280_pressure;Samples;Min_cycle;Max_cycle;Signal;HPM_P1;HPM_P2
2021/09/24 00:00:57;;;;;;;4.18;2.40;;;;;;;17.97;58.07;100301.41;10321401;28;20694;-61
2021/09/24 00:05:58;;;;;;;3.28;2.58;;;;;;;17.94;58.28;100299.91;10328158;28;20622;-60
2021/09/24 00:11:00;;;;;;;4.25;2.30;;;;;;;17.87;58.18;100292.66;10319140;28;20054;-60
2021/09/24 00:16:02;;;;;;;3.17;2.88;;;;;;;17.81;58.80;100294.16;10320982;28;20161;-61
2021/09/24 00:21:03;;;;;;;4.90;2.90;;;;;;;17.60;59.34;100287.44;10323559;28;20046;-63
2021/09/24 00:26:05;;;;;;;5.25;3.17;;;;;;;17.53;59.60;100285.59;10321613;28;20049;-61
2021/09/24 00:31:06;;;;;;;4.63;2.58;;;;;;;17.56;59.82;100299.53;10323850;28;20116;-60
2021/09/24 00:36:08;;;;;;;3.10;2.80;;;;;;;17.46;59.82;100282.75;10320978;28;20056;-60
2021/09/24 00:41:10;;;;;;;3.47;2.90;;;;;;;17.38;60.32;100270.09;10320023;28;20045;-60
2021/09/24 00:46:12;;;;;;;3.53;3.15;;;;;;;17.42;60.04;100278.69;10320533;28;20057;-60
2021/09/24 00:51:14;;;;;;;8.52;3.55;;;;;;;17.36;60.83;100274.00;10324066;28;20056;-63
2021/09/24 00:56:16;;;;;;;6.65;3.38;;;;;;;17.20;61.34;100259.50;10320483;28;20054;-60
2021/09/24 01:01:18;;;;;;;4.97;2.83;;;;;;;17.17;61.28;100265.22;10332005;28;20396;-60
2021/09/24 01:06:20;;;;;;;4.78;3.35;;;;;;;17.15;61.66;100261.84;10358986;28;20042;-60
2021/09/24 01:11:21;;;;;;;3.08;2.80;;;;;;;17.12;61.34;100262.19;10319928;28;20045;-60
2021/09/24 01:16:23;;;;;;;4.88;3.20;;;;;;;17.04;61.58;100249.59;10318988;28;20602;-60
2021/09/24 01:21:25;;;;;;;4.47;3.05;;;;;;;17.00;62.14;100252.78;10318640;28;20631;-63
2021/09/24 01:26:26;;;;;;;3.33;2.78;;;;;;;17.06;62.21;100268.25;10320806;28;20057;-60
2021/09/24 01:31:28;;;;;;;3.63;3.03;;;;;;;17.07;62.44;100270.75;10319125;28;20045;-61
2021/09/24 01:36:29;;;;;;;3.08;2.75;;;;;;;17.13;62.52;100266.56;10318778;28;20696;-60
2021/09/24 01:41:31;;;;;;;4.82;3.05;;;;;;;17.16;62.72;100262.69;10332889;28;20058;-60
2021/09/24 01:46:38;;;;;;;2.90;2.70;;;;;;;17.16;62.71;100252.78;10310749;28;20415;-60
2021/09/24 01:51:44;;;;;;;2.75;2.55;;;;;;;16.99;62.99;100251.06;10324775;28;20050;-60
2021/09/24 01:56:45;;;;;;;3.83;2.75;;;;;;;16.91;63.59;100244.66;10331224;28;20041;-60
2021/09/24 02:01:47;;;;;;;3.33;2.92;;;;;;;16.88;64.01;100242.31;10334058;28;20479;-60
2021/09/24 02:06:49;;;;;;;4.30;3.10;;;;;;;16.80;64.42;100234.22;10341579;28;20077;-60
2021/09/24 02:11:50;;;;;;;4.70;3.03;;;;;;;16.79;64.56;100238.72;10341032;28;20079;-60
2021/09/24 02:16:52;;;;;;;3.22;2.90;;;;;;;16.81;64.98;100241.25;10334150;28;20064;-60
2021/09/24 02:21:53;;;;;;;4.22;3.10;;;;;;;16.71;64.77;100227.13;10340330;28;22254;-60
2021/09/24 02:26:56;;;;;;;3.03;2.72;;;;;;;16.82;65.36;100244.81;10332986;28;20037;-60
2021/09/24 02:31:57;;;;;;;3.70;3.17;;;;;;;16.84;64.62;100243.59;10323256;28;20042;-60
2021/09/24 02:36:59;;;;;;;4.70;3.22;;;;;;;16.76;65.12;100243.59;10323901;23;20046;-57
2021/09/24 02:42:00;;;;;;;7.18;3.30;;;;;;;16.76;65.33;100251.66;10294816;28;20683;-57
2021/09/24 02:47:02;;;;;;;3.67;2.92;;;;;;;16.60;65.32;100239.88;10294391;28;20069;-57
2021/09/24 02:52:06;;;;;;;4.47;3.72;;;;;;;16.63;65.50;100252.13;10289965;28;20376;-57
2021/09/24 02:57:07;;;;;;;3.90;3.40;;;;;;;16.61;66.04;100238.84;10289373;28;20064;-58
2021/09/24 03:02:09;;;;;;;4.70;3.80;;;;;;;16.51;66.00;100253.44;10299673;28;20089;-58
2021/09/24 03:07:11;;;;;;;5.18;3.72;;;;;;;16.45;66.71;100249.53;10293806;28;20057;-56
2021/09/24 03:12:12;;;;;;;6.35;3.72;;;;;;;16.47;66.76;100247.56;10296289;28;20042;-57
2021/09/24 03:17:14;;;;;;;4.75;3.70;;;;;;;16.52;66.76;100253.25;10297057;28;20537;-57
2021/09/24 03:22:15;;;;;;;5.85;3.83;;;;;;;16.48;66.92;100243.84;10296496;28;20054;-56
2021/09/24 03:27:17;;;;;;;3.80;3.50;;;;;;;16.57;66.52;100259.00;10293418;28;20057;-56
2021/09/24 03:32:19;;;;;;;3.97;3.40;;;;;;;16.47;66.54;100269.03;10297352;28;20054;-57
2021/09/24 03:37:20;;;;;;;6.20;3.80;;;;;;;16.23;67.12;100267.91;10298975;28;20141;-56
2021/09/24 03:42:22;;;;;;;5.13;3.80;;;;;;;16.15;67.25;100270.53;10300565;28;20062;-58
2021/09/24 03:47:24;;;;;;;6.10;3.72;;;;;;;16.08;66.75;100270.34;10292714;28;20372;-56
2021/09/24 03:52:25;;;;;;;4.47;3.45;;;;;;;16.03;67.84;100266.44;10292817;28;20042;-56
2021/09/24 03:57:27;;;;;;;3.60;3.30;;;;;;;15.97;67.71;100261.72;10292644;28;20155;-56
2021/09/24 04:02:29;;;;;;;3.90;3.55;;;;;;;16.05;67.60;100262.63;10294622;28;20146;-56
2021/09/24 04:07:31;;;;;;;4.32;3.72;;;;;;;15.84;67.97;100248.75;10296619;28;20148;-56
2021/09/24 04:12:33;;;;;;;3.95;3.00;;;;;;;15.90;68.72;100278.47;10292716;28;20049;-57
2021/09/24 04:17:34;;;;;;;3.88;3.47;;;;;;;15.92;68.85;100270.25;10294912;28;20054;-56
2021/09/24 04:22:36;;;;;;;4.85;3.67;;;;;;;15.77;67.86;100269.13;10294097;28;20833;-56
2021/09/24 04:27:38;;;;;;;6.18;3.95;;;;;;;15.65;68.27;100281.94;10291225;28;20091;-56
2021/09/24 04:32:39;;;;;;;7.38;4.10;;;;;;;15.48;68.90;100289.03;10291330;28;20057;-56
2021/09/24 04:37:41;;;;;;;5.85;4.30;;;;;;;15.28;69.65;100280.28;10288408;28;20074;-56
2021/09/24 04:42:43;;;;;;;4.93;4.20;;;;;;;15.25;70.50;100278.75;10289274;28;20446;-56
2021/09/24 04:47:44;;;;;;;4.43;4.03;;;;;;;15.33;70.07;100302.13;10292311;28;20154;-56
2021/09/24 04:52:46;;;;;;;5.07;4.55;;;;;;;15.38;69.15;100281.03;10288659;28;20066;-56
2021/09/24 04:57:48;;;;;;;6.07;4.13;;;;;;;15.47;70.03;100293.53;10279652;28;20490;-56
2021/09/24 05:02:49;;;;;;;5.60;4.65;;;;;;;15.56;69.93;100295.28;10290150;28;20138;-56
2021/09/24 05:07:51;;;;;;;5.65;4.30;;;;;;;15.59;69.16;100309.41;10279813;28;20225;-56
2021/09/24 05:12:52;;;;;;;4.93;4.05;;;;;;;15.59;69.60;100318.28;10285309;28;20717;-57
2021/09/24 05:17:54;;;;;;;5.32;4.60;;;;;;;15.64;69.33;100307.06;10283454;28;20154;-56
2021/09/24 05:22:56;;;;;;;4.75;4.30;;;;;;;15.66;69.57;100305.09;10279781;28;20126;-56
2021/09/24 05:27:58;;;;;;;5.68;4.28;;;;;;;15.70;69.37;100301.09;10284512;28;20085;-56
2021/09/24 05:32:59;;;;;;;6.38;5.10;;;;;;;15.65;68.90;100300.72;10295112;28;20050;-56
2021/09/24 05:38:01;;;;;;;6.72;4.55;;;;;;;15.68;69.08;100295.03;10294303;28;20054;-56
2021/09/24 05:43:02;;;;;;;5.63;4.70;;;;;;;15.76;68.95;100292.41;10296462;28;20142;-57
2021/09/24 05:48:03;;;;;;;6.68;4.68;;;;;;;15.81;68.89;100284.78;10298555;28;20138;-56
2021/09/24 05:53:05;;;;;;;6.15;4.47;;;;;;;15.86;68.79;100298.56;10299934;28;20066;-57
2021/09/24 05:58:07;;;;;;;7.60;5.63;;;;;;;15.71;68.58;100300.09;10299485;28;20527;-56
2021/09/24 06:03:08;;;;;;;7.57;4.57;;;;;;;15.62;68.84;100303.72;10306169;28;20105;-57
2021/09/24 06:08:10;;;;;;;10.05;5.72;;;;;;;15.63;69.80;100310.78;10301572;28;20054;-57
2021/09/24 06:13:12;;;;;;;5.55;4.93;;;;;;;15.69;70.21;100300.25;10280817;28;21344;-57
2021/09/24 06:18:13;;;;;;;5.28;4.72;;;;;;;15.68;69.70;100289.69;10279814;28;20186;-56
2021/09/24 06:23:14;;;;;;;10.25;4.93;;;;;;;15.56;69.62;100311.38;10283101;28;20043;-56
2021/09/24 06:28:16;;;;;;;5.40;4.90;;;;;;;15.50;69.99;100309.31;10296803;28;20196;-56
2021/09/24 06:33:17;;;;;;;7.07;5.57;;;;;;;15.45;70.45;100306.25;10282210;28;20125;-55
2021/09/24 06:38:19;;;;;;;8.02;5.38;;;;;;;15.58;70.48;100305.84;10280186;28;20053;-56
2021/09/24 06:43:20;;;;;;;6.50;5.80;;;;;;;15.68;70.31;100314.66;10283509;28;20043;-56
2021/09/24 06:48:22;;;;;;;7.32;5.93;;;;;;;15.60;70.11;100317.28;10283272;28;20328;-56
2021/09/24 06:53:23;;;;;;;7.07;6.35;;;;;;;15.77;70.14;100314.75;10286911;28;20129;-56
2021/09/24 06:58:25;;;;;;;9.35;6.72;;;;;;;15.77;69.89;100336.22;10284218;28;20567;-55
2021/09/24 07:03:27;;;;;;;7.50;5.72;;;;;;;15.93;69.05;100322.09;10282516;28;20054;-59
2021/09/24 07:08:28;;;;;;;8.80;6.00;;;;;;;15.71;69.18;100300.09;10282676;28;20149;-56
2021/09/24 07:13:29;;;;;;;10.50;6.40;;;;;;;15.81;69.51;100335.78;10284029;28;20057;-56
2021/09/24 07:18:31;;;;;;;9.00;5.78;;;;;;;15.83;69.73;100331.09;10283828;28;20150;-56
2021/09/24 07:23:33;;;;;;;8.77;6.40;;;;;;;15.88;69.82;100326.09;10284559;28;20065;-54
2021/09/24 07:28:34;;;;;;;9.57;6.05;;;;;;;16.01;69.10;100338.28;10283803;28;20141;-57
2021/09/24 07:33:36;;;;;;;8.02;6.07;;;;;;;15.92;69.35;100333.84;10284319;28;20152;-55
2021/09/24 07:38:37;;;;;;;7.15;6.45;;;;;;;15.90;69.86;100334.84;10282559;28;20511;-58
2021/09/24 07:43:39;;;;;;;7.72;6.80;;;;;;;15.89;70.28;100335.81;10281963;28;20046;-56
2021/09/24 07:48:42;;;;;;;11.15;6.53;;;;;;;16.00;69.24;100334.75;10280679;28;20050;-56
2021/09/24 07:53:44;;;;;;;6.47;5.87;;;;;;;16.06;69.69;100327.88;10281644;28;20135;-56
2021/09/24 07:58:46;;;;;;;8.10;7.30;;;;;;;16.39;68.74;100336.16;10279399;28;20054;-55
2021/09/24 08:03:47;;;;;;;8.73;6.95;;;;;;;16.49;68.46;100344.94;10280152;28;20655;-54
2021/09/24 08:08:48;;;;;;;7.60;6.90;;;;;;;16.52;68.21;100344.63;10282212;28;20149;-56
2021/09/24 08:13:50;;;;;;;9.82;7.05;;;;;;;16.72;68.23;100347.06;10284967;28;20199;-55
2021/09/24 08:18:51;;;;;;;8.00;7.07;;;;;;;16.76;67.61;100341.19;10287898;28;20149;-54
2021/09/24 08:23:53;;;;;;;8.70;7.03;;;;;;;16.86;67.51;100338.41;10282778;28;20141;-54
2021/09/24 08:28:55;;;;;;;7.55;6.20;;;;;;;17.27;66.62;100351.16;10281328;28;20197;-54
2021/09/24 08:33:58;;;;;;;6.60;5.78;;;;;;;17.54;65.46;100350.00;10280292;28;20133;-54
2021/09/24 08:39:00;;;;;;;8.23;6.10;;;;;;;17.70;65.16;100329.50;10313091;22;20344;-62
2021/09/24 08:44:02;;;;;;;10.10;5.80;;;;;;;17.96;64.24;100335.56;10298294;28;20049;-61
2021/09/24 08:49:05;;;;;;;7.57;6.05;;;;;;;18.22;63.81;100345.28;10297986;28;20120;-62
2021/09/24 08:54:06;;;;;;;8.60;6.05;;;;;;;18.59;62.87;100335.78;10296055;28;20594;-61
2021/09/24 08:59:08;;;;;;;6.47;5.40;;;;;;;18.92;62.11;100330.28;10286664;28;20121;-60
2021/09/24 09:04:10;;;;;;;7.50;5.70;;;;;;;19.16;60.87;100337.41;10292902;28;20069;-60
2021/09/24 09:09:12;;;;;;;6.70;5.30;;;;;;;18.89;61.75;100344.13;10302480;28;20066;-60
2021/09/24 09:14:18;;;;;;;6.28;4.88;;;;;;;18.84;62.05;100341.06;10299457;28;20060;-61
2021/09/24 09:19:21;;;;;;;5.22;4.70;;;;;;;19.03;61.45;100335.25;10295847;28;20085;-62
2021/09/24 09:24:26;;;;;;;5.70;5.17;;;;;;;19.53;60.18;100343.91;10294278;28;20558;-61
2021/09/24 09:29:27;;;;;;;7.03;5.25;;;;;;;19.97;58.84;100331.59;10296797;28;20691;-61
2021/09/24 09:34:36;;;;;;;5.70;3.97;;;;;;;20.18;58.67;100338.97;10296840;28;20711;-63
2021/09/24 09:39:38;;;;;;;5.88;4.13;;;;;;;20.34;58.06;100339.84;10294118;28;20688;-61
2021/09/24 09:44:39;;;;;;;6.88;4.78;;;;;;;20.78;56.60;100336.31;10302104;28;20514;-62
2021/09/24 09:49:40;;;;;;;7.40;4.20;;;;;;;21.19;55.61;100336.59;10301365;28;20690;-60
2021/09/24 09:54:42;;;;;;;5.88;3.90;;;;;;;21.89;53.43;100339.59;10299288;28;20050;-62
2021/09/24 09:59:55;;;;;;;4.53;3.88;;;;;;;22.87;50.80;100329.81;10302647;28;20469;-62
2021/09/24 10:04:57;;;;;;;4.67;3.30;;;;;;;26.73;43.02;100331.38;10295998;28;20505;-60
2021/09/24 10:10:16;;;;;;;11.20;3.80;;;;;;;29.23;35.45;100325.09;10299159;28;20622;-69
2021/09/24 10:15:18;;;;;;;3.90;2.70;;;;;;;30.92;33.39;100324.09;10310654;28;20057;-62
2021/09/24 10:20:20;;;;;;;4.63;2.88;;;;;;;28.80;36.04;100316.28;10294988;28;20261;-64
2021/09/24 10:25:22;;;;;;;4.70;2.93;;;;;;;28.20;37.22;100311.97;10299435;28;20127;-60
2021/09/24 10:30:29;;;;;;;3.45;2.85;;;;;;;29.44;35.96;100307.13;10297605;28;20129;-64
2021/09/24 10:35:45;;;;;;;4.22;2.08;;;;;;;30.03;34.34;100311.38;10297376;28;20112;-63
2021/09/24 10:41:05;;;;;;;3.30;1.73;;;;;;;34.05;27.85;100315.88;10304590;28;20471;-65
2021/09/24 10:46:25;;;;;;;2.38;1.35;;;;;;;34.99;24.68;100295.09;10295665;28;20566;-59
2021/09/24 10:51:30;;;;;;;2.45;1.10;;;;;;;36.18;24.55;100287.47;10296509;28;20047;-57
2021/09/24 10:56:32;;;;;;;2.65;1.20;;;;;;;35.74;25.17;100288.44;10301244;28;20495;-57
2021/09/24 11:01:36;;;;;;;4.30;1.50;;;;;;;36.39;23.49;100288.09;10296332;28;20054;-61
2021/09/24 11:07:00;;;;;;;1.63;1.25;;;;;;;35.97;24.14;100274.97;10291591;28;20049;-51
2021/09/24 11:12:07;;;;;;;3.20;1.92;;;;;;;38.01;21.96;100267.59;10299217;28;20113;-53
2021/09/24 11:17:32;;;;;;;2.45;1.58;;;;;;;40.53;19.01;100259.84;10295867;28;20052;-50
2021/09/24 11:22:38;;;;;;;2.88;0.98;;;;;;;41.13;18.57;100259.06;10253661;28;20129;-50
2021/09/24 11:27:45;;;;;;;1.87;1.30;;;;;;;42.76;16.71;100255.50;10297726;28;20148;-56
2021/09/24 11:32:50;;;;;;;1.67;1.08;;;;;;;43.73;15.73;100238.59;10299218;28;20136;-58
2021/09/24 11:37:51;;;;;;;3.03;0.70;;;;;;;44.65;15.48;100239.16;10295214;28;20130;-52
2021/09/24 11:42:57;;;;;;;2.17;0.70;;;;;;;41.96;16.83;100236.69;10299520;28;20104;-55
2021/09/24 11:48:04;;;;;;;1.92;0.80;;;;;;;43.50;15.29;100230.63;10295757;28;20323;-52
2021/09/24 11:53:12;;;;;;;1.58;0.60;;;;;;;41.75;17.42;100215.09;10299058;28;20070;-56
2021/09/24 11:58:18;;;;;;;3.03;0.80;;;;;;;43.18;16.33;100223.84;10295656;28;20050;-55
2021/09/24 12:03:27;;;;;;;1.88;0.80;;;;;;;41.07;18.10;100218.50;10292982;28;20181;-57
2021/09/24 12:08:39;;;;;;;1.33;0.40;;;;;;;41.86;16.48;100221.16;10298488;28;20170;-54
2021/09/24 12:13:48;;;;;;;1.42;0.60;;;;;;;38.87;18.84;100218.81;10299314;28;20135;-60
2021/09/24 12:18:54;;;;;;;3.08;0.50;;;;;;;33.36;25.81;100216.03;10293520;28;20232;-51
2021/09/24 12:23:57;;;;;;;2.10;0.77;;;;;;;31.52;29.31;100216.94;10300757;28;20081;-55
2021/09/24 12:29:06;;;;;;;3.47;1.10;;;;;;;36.97;22.50;100212.16;10295913;28;20053;-55
2021/09/24 12:34:10;;;;;;;1.85;1.00;;;;;;;39.40;20.02;100208.88;10297927;28;20184;-56
2021/09/24 12:39:17;;;;;;;4.35;1.30;;;;;;;34.62;25.13;100218.97;10293706;28;20455;-54
2021/09/24 12:44:20;;;;;;;4.38;1.42;;;;;;;29.34;32.69;100219.22;10294311;28;20100;-53
2021/09/24 12:49:22;;;;;;;3.17;1.67;;;;;;;27.21;37.25;100227.78;10303165;28;20105;-51
2021/09/24 12:54:26;;;;;;;3.88;2.80;;;;;;;25.58;41.19;100215.44;10302806;28;20077;-54
2021/09/24 12:59:29;;;;;;;4.22;2.03;;;;;;;25.04;42.50;100231.34;10294408;28;20153;-52
2021/09/24 13:04:31;;;;;;;3.47;2.42;;;;;;;24.67;43.81;100226.53;10295493;28;20406;-57
2021/09/24 13:09:33;;;;;;;3.85;2.40;;;;;;;24.41;44.23;100210.28;10290453;28;20116;-55
2021/09/24 13:14:35;;;;;;;5.80;3.10;;;;;;;24.40;44.69;100219.53;10297410;28;20047;-52
2021/09/24 13:19:37;;;;;;;3.78;2.33;;;;;;;24.31;44.96;100217.03;10296517;28;20046;-57
2021/09/24 13:24:38;;;;;;;3.95;3.30;;;;;;;24.07;45.56;100204.97;10297770;28;20125;-54
2021/09/24 13:29:40;;;;;;;3.05;2.40;;;;;;;23.99;46.07;100197.91;10295897;28;20128;-56
2021/09/24 13:34:43;;;;;;;5.97;3.00;;;;;;;23.95;46.29;100203.97;10251146;28;20058;-62
2021/09/24 13:39:44;;;;;;;4.05;1.70;;;;;;;23.80;46.08;100183.25;10299943;28;20121;-61
2021/09/24 13:44:45;;;;;;;4.15;2.00;;;;;;;23.87;46.08;100180.56;10294380;28;20054;-61
2021/09/24 13:49:47;;;;;;;1.35;0.98;;;;;;;23.86;45.24;100181.63;10296291;28;20531;-61
2021/09/24 13:54:49;;;;;;;2.15;0.30;;;;;;;24.78;42.63;100172.47;10302334;28;20069;-62
2021/09/24 13:59:50;;;;;;;1.27;0.40;;;;;;;25.05;42.48;100157.59;10302205;28;20046;-61
2021/09/24 14:04:51;;;;;;;3.72;1.15;;;;;;;25.00;42.29;100149.28;10303147;28;21030;-65
2021/09/24 14:09:53;;;;;;;1.45;0.30;;;;;;;25.18;42.09;100153.13;10300012;28;20074;-61
2021/09/24 14:14:55;;;;;;;1.10;0.47;;;;;;;25.22;41.60;100157.03;10303528;28;20050;-64
2021/09/24 14:19:57;;;;;;;1.40;0.60;;;;;;;24.89;43.04;100136.34;10302897;28;20549;-61
2021/09/24 14:24:58;;;;;;;2.35;0.90;;;;;;;24.90;42.94;100137.22;10303764;28;20406;-63
2021/09/24 14:30:01;;;;;;;4.30;1.10;;;;;;;24.62;43.60;100136.56;10296044;28;20047;-64
2021/09/24 14:35:03;;;;;;;2.10;0.70;;;;;;;24.33;44.34;100136.03;10298658;28;20061;-61
2021/09/24 14:40:06;;;;;;;6.25;0.95;;;;;;;23.91;45.20;100135.59;10336946;23;20346;-56
2021/09/24 14:45:08;;;;;;;;;;;;;;;23.75;45.72;100141.47;10321245;28;20197;-60
2021/09/24 14:50:11;;;;;;;1.90;0.80;;;;;;;23.58;46.33;100136.47;10319567;28;19921;-56
2021/09/24 14:55:13;;;;;;;3.78;1.48;;;;;;;23.19;47.46;100121.91;10320387;28;20232;-57
2021/09/24 15:00:15;;;;;;;1.70;1.20;;;;;;;22.85;48.22;100121.06;10318636;28;20053;-55
2021/09/24 15:05:16;;;;;;;3.58;1.90;;;;;;;22.61;49.31;100130.63;10319807;28;20247;-59
2021/09/24 15:10:17;;;;;;;4.07;1.40;;;;;;;22.69;49.05;100126.88;10320286;28;20069;-55
2021/09/24 15:15:19;;;;;;;2.60;1.52;;;;;;;22.77;48.79;100132.09;10320747;28;20200;-55
2021/09/24 15:20:21;;;;;;;2.20;1.20;;;;;;;22.69;49.40;100118.75;10320012;28;20634;-59
2021/09/24 15:25:23;;;;;;;4.22;1.42;;;;;;;22.83;49.65;100117.69;10319223;28;20067;-54
2021/09/24 15:30:24;;;;;;;4.03;2.15;;;;;;;22.68;50.27;100130.63;10335054;28;20362;-58
2021/09/24 15:35:26;;;;;;;3.38;1.40;;;;;;;22.69;49.55;100121.44;10319575;28;20228;-57
2021/09/24 15:40:27;;;;;;;2.25;1.33;;;;;;;22.48;49.94;100114.31;10321195;28;20145;-55
2021/09/24 15:45:29;;;;;;;1.10;0.98;;;;;;;22.68;49.76;100126.03;10322346;28;20136;-55
2021/09/24 15:50:31;;;;;;;1.60;1.10;;;;;;;22.38;50.00;100126.41;10317414;28;20642;-55
2021/09/24 15:55:32;;;;;;;4.03;1.42;;;;;;;22.12;50.84;100118.97;10302349;28;20158;-56
2021/09/24 16:00:35;;;;;;;3.53;1.10;;;;;;;21.98;51.43;100119.94;10301243;28;20507;-57
2021/09/24 16:05:37;;;;;;;4.50;1.25;;;;;;;21.96;51.19;100103.88;10316236;28;20061;-57
2021/09/24 16:10:38;;;;;;;2.35;0.85;;;;;;;22.12;51.15;100132.50;10310220;28;20085;-57
2021/09/24 16:15:40;;;;;;;1.58;1.15;;;;;;;22.01;51.14;100131.22;10304149;28;20130;-57
2021/09/24 16:20:42;;;;;;;2.88;1.30;;;;;;;21.89;51.16;100127.44;10316881;28;20050;-54
2021/09/24 16:25:43;;;;;;;1.90;0.90;;;;;;;21.64;51.57;100137.91;10317676;28;20100;-57
2021/09/24 16:30:46;;;;;;;1.52;1.05;;;;;;;21.53;51.60;100126.59;10316055;28;20065;-59
2021/09/24 16:35:48;;;;;;;1.70;1.00;;;;;;;21.52;51.67;100143.03;10318246;28;20121;-54
2021/09/24 16:40:49;;;;;;;2.95;0.95;;;;;;;21.46;51.37;100144.63;10316158;28;20080;-56
2021/09/24 16:45:51;;;;;;;1.40;0.90;;;;;;;21.45;51.80;100142.13;10307225;28;20517;-53
2021/09/24 16:50:52;;;;;;;1.70;1.08;;;;;;;21.37;50.67;100151.22;10313376;28;20141;-58
2021/09/24 16:55:56;;;;;;;2.05;1.05;;;;;;;21.28;50.71;100147.00;10314786;28;20678;-60
2021/09/24 17:01:02;;;;;;;2.08;0.90;;;;;;;21.29;50.70;100145.97;10315287;28;20058;-56
2021/09/24 17:06:04;;;;;;;1.17;1.00;;;;;;;21.28;50.69;100149.69;10314534;28;20495;-56
2021/09/24 17:11:06;;;;;;;3.40;1.10;;;;;;;21.11;50.21;100155.41;10314928;28;20453;-57
2021/09/24 17:16:07;;;;;;;1.67;1.00;;;;;;;20.95;50.57;100153.78;10312602;28;20803;-58
2021/09/24 17:21:09;;;;;;;1.77;1.38;;;;;;;20.98;51.72;100141.75;10316763;28;21663;-53
2021/09/24 17:26:14;;;;;;;3.78;1.55;;;;;;;21.09;51.61;100164.75;10338016;28;20054;-58
2021/09/24 17:31:16;;;;;;;3.60;2.30;;;;;;;21.01;51.54;100163.00;10323866;28;20125;-58
2021/09/24 17:36:17;;;;;;;3.60;1.75;;;;;;;20.94;51.88;100175.63;10326372;28;20046;-56
2021/09/24 17:41:19;;;;;;;3.45;2.38;;;;;;;20.83;52.14;100180.50;10324741;28;20143;-57
2021/09/24 17:46:20;;;;;;;3.33;2.05;;;;;;;20.90;51.66;100180.59;10322497;28;20450;-57
2021/09/24 17:51:22;;;;;;;3.17;2.30;;;;;;;20.68;51.93;100179.75;10323799;28;20135;-56
2021/09/24 17:56:23;;;;;;;3.63;2.30;;;;;;;20.65;51.78;100186.38;10321553;28;20046;-57
2021/09/24 18:01:25;;;;;;;3.28;1.77;;;;;;;20.67;52.66;100183.47;10324972;28;20141;-56
2021/09/24 18:06:28;;;;;;;2.35;1.70;;;;;;;20.60;52.75;100182.53;10324499;28;20285;-57
2021/09/24 18:11:29;;;;;;;2.80;1.58;;;;;;;20.40;52.89;100177.75;10322005;28;20115;-57
2021/09/24 18:16:31;;;;;;;3.03;2.03;;;;;;;20.47;53.93;100188.63;10322567;28;20053;-59
2021/09/24 18:21:35;;;;;;;5.20;2.60;;;;;;;20.40;53.12;100183.16;10325707;28;20054;-58
2021/09/24 18:26:37;;;;;;;4.40;3.13;;;;;;;20.44;53.77;100199.81;10324872;28;20045;-59
2021/09/24 18:31:38;;;;;;;3.65;2.30;;;;;;;20.39;53.52;100197.69;10324153;28;20049;-58
2021/09/24 18:36:41;;;;;;;2.85;1.80;;;;;;;20.21;54.46;100199.97;10323941;28;20204;-58
2021/09/24 18:41:42;;;;;;;2.75;1.85;;;;;;;20.19;55.12;100210.09;10335066;28;20223;-56
2021/09/24 18:46:44;;;;;;;3.35;2.58;;;;;;;20.09;55.71;100213.94;10324268;28;20486;-58
2021/09/24 18:51:45;;;;;;;4.35;2.80;;;;;;;20.00;56.18;100209.66;10323391;28;20050;-59
2021/09/24 18:56:47;;;;;;;2.38;2.15;;;;;;;19.95;56.29;100222.84;10323706;28;20196;-60
2021/09/24 19:01:48;;;;;;;3.80;2.47;;;;;;;19.84;57.00;100215.22;10322180;28;20061;-58
2021/09/24 19:06:50;;;;;;;3.83;3.38;;;;;;;19.77;56.81;100221.38;10322668;28;20057;-57
2021/09/24 19:11:51;;;;;;;3.85;2.90;;;;;;;19.75;57.07;100227.94;10319996;28;20128;-60
2021/09/24 19:16:53;;;;;;;3.50;3.03;;;;;;;19.59;56.98;100224.38;10319908;28;20136;-58
2021/09/24 19:21:54;;;;;;;4.45;2.70;;;;;;;19.54;57.72;100232.19;10323401;28;20125;-60
2021/09/24 19:26:56;;;;;;;5.35;2.63;;;;;;;19.47;58.02;100235.78;10323375;28;20172;-58
2021/09/24 19:31:58;;;;;;;3.88;3.05;;;;;;;19.36;58.45;100239.78;10319466;28;20046;-59
2021/09/24 19:37:01;;;;;;;4.05;2.67;;;;;;;19.37;58.24;100242.28;10338340;28;20553;-59
2021/09/24 19:42:03;;;;;;;4.50;3.00;;;;;;;19.32;58.60;100236.59;10320177;28;20133;-56
2021/09/24 19:47:04;;;;;;;5.35;4.03;;;;;;;19.26;59.08;100237.34;10320985;28;20060;-57
2021/09/24 19:52:06;;;;;;;5.18;4.20;;;;;;;19.18;59.17;100234.69;10321841;28;21018;-60
2021/09/24 19:57:07;;;;;;;6.47;3.15;;;;;;;19.05;59.54;100233.44;10321408;28;20073;-53
2021/09/24 20:02:09;;;;;;;4.30;3.45;;;;;;;18.99;59.64;100233.28;10318265;28;20144;-54
2021/09/24 20:07:11;;;;;;;4.03;3.42;;;;;;;18.93;60.01;100234.88;10316803;28;20057;-54
2021/09/24 20:12:12;;;;;;;5.80;3.65;;;;;;;18.82;60.14;100232.53;10317255;28;22606;-54
2021/09/24 20:17:14;;;;;;;3.55;3.25;;;;;;;18.78;60.36;100225.81;10278489;28;20133;-58
2021/09/24 20:22:15;;;;;;;5.07;3.65;;;;;;;18.62;60.95;100222.22;10275734;28;20054;-55
2021/09/24 20:27:17;;;;;;;4.68;3.78;;;;;;;18.71;61.07;100225.69;10279659;28;20050;-59
2021/09/24 20:32:19;;;;;;;4.63;3.63;;;;;;;18.70;61.14;100230.22;10275898;28;20121;-54
2021/09/24 20:37:21;;;;;;;5.07;4.15;;;;;;;18.61;61.54;100239.38;10279105;28;20527;-58
2021/09/24 20:42:22;;;;;;;6.38;5.07;;;;;;;18.61;61.85;100242.09;10268795;28;20085;-57
2021/09/24 20:47:24;;;;;;;4.95;4.55;;;;;;;18.46;61.96;100233.91;10318672;28;20064;-54
2021/09/24 20:52:25;;;;;;;5.65;4.38;;;;;;;18.48;62.60;100245.34;10323711;28;20064;-56
2021/09/24 20:57:27;;;;;;;7.18;5.05;;;;;;;18.37;62.78;100238.50;10335241;28;20690;-60
2021/09/24 21:02:28;;;;;;;6.25;4.07;;;;;;;18.38;62.67;100250.94;10328916;28;22866;-54
2021/09/24 21:07:30;;;;;;;5.78;4.20;;;;;;;18.25;63.41;100237.19;10332415;28;20050;-54
2021/09/24 21:12:32;;;;;;;5.22;4.13;;;;;;;18.28;63.35;100247.63;10329721;28;20073;-58
2021/09/24 21:17:33;;;;;;;6.53;5.22;;;;;;;18.23;63.54;100249.16;10333413;28;20255;-56
2021/09/24 21:22:35;;;;;;;6.03;4.57;;;;;;;18.14;63.83;100249.19;10329996;28;20169;-57
2021/09/24 21:27:37;;;;;;;11.95;8.52;;;;;;;18.17;64.18;100250.69;10335175;28;20077;-58
2021/09/24 21:32:40;;;;;;;8.02;5.38;;;;;;;18.16;64.26;100249.00;10332116;28;20057;-58
2021/09/24 21:37:42;;;;;;;7.63;5.07;;;;;;;18.17;64.33;100246.13;10338147;28;20061;-59
2021/09/24 21:42:44;;;;;;;7.60;6.07;;;;;;;18.12;64.30;100240.44;10332911;28;20057;-57
2021/09/24 21:47:45;;;;;;;8.18;5.70;;;;;;;18.15;64.37;100245.47;10335164;28;20527;-59
2021/09/24 21:52:47;;;;;;;6.72;6.13;;;;;;;18.09;64.48;100237.25;10337793;28;20530;-59
2021/09/24 21:57:48;;;;;;;8.38;7.47;;;;;;;18.06;64.91;100245.66;10335143;28;20049;-58
2021/09/24 22:02:50;;;;;;;9.90;7.35;;;;;;;18.01;65.27;100240.81;10330241;28;20720;-57
2021/09/24 22:07:51;;;;;;;9.50;8.20;;;;;;;17.97;65.58;100243.00;10335785;28;20081;-55
2021/09/24 22:12:53;;;;;;;10.02;8.57;;;;;;;17.96;65.84;100248.56;10339542;28;20208;-57
2021/09/24 22:17:56;;;;;;;9.43;7.82;;;;;;;17.94;66.05;100254.13;10344090;28;20042;-60
2021/09/24 22:22:57;;;;;;;9.77;7.47;;;;;;;17.87;66.02;100246.88;10281569;23;20442;-60
2021/09/24 22:27:59;;;;;;;7.32;6.60;;;;;;;17.87;66.40;100254.94;10254408;28;20113;-60
2021/09/24 22:33:04;;;;;;;8.00;7.18;;;;;;;17.83;66.34;100255.28;10253946;28;20058;-60
2021/09/24 22:38:05;;;;;;;7.50;6.43;;;;;;;17.77;66.65;100257.81;10254820;28;20058;-60
2021/09/24 22:43:08;;;;;;;10.30;7.00;;;;;;;17.78;66.63;100248.75;10282164;28;20046;-60
2021/09/24 22:48:10;;;;;;;7.57;6.70;;;;;;;17.61;67.19;100224.53;10253922;28;20114;-60
2021/09/24 22:53:11;;;;;;;7.22;6.47;;;;;;;17.68;67.09;100235.44;10253797;28;20078;-61
2021/09/24 22:58:13;;;;;;;6.85;5.95;;;;;;;17.66;66.89;100248.25;10253321;28;20105;-61
2021/09/24 23:03:15;;;;;;;7.72;5.55;;;;;;;17.62;67.43;100253.09;10252611;28;20062;-61
2021/09/24 23:08:17;;;;;;;7.60;4.93;;;;;;;17.56;67.60;100245.72;10251715;28;20059;-61